sensor_id;sensor_type;location;lat;lon;timestamp;P1;durP1;ratioP1;P2;durP2;ratioP2
9888;SDS011;4983;42.112;24.738;2022-11-15T00:01:30;47.33;;;38.47;;
9888;SDS011;4983;42.112;24.738;2022-11-15T00:03:57;45.07;;;37.87;;
9888;SDS011;4983;42.112;24.738;2022-11-15T00:06:24;54.97;;;44.97;;
9888;SDS011;4983;42.112;24.738;2022-11-15T00:08:51;45.27;;;38.13;;
9888;SDS011;4983;42.112;24.738;2022-11-15T00:11:19;42.27;;;35.03;;
9888;SDS011;4983;42.112;24.738;2022-11-15T00:13:46;63.17;;;50.43;;
9888;SDS011;4983;42.112;24.738;2022-11-15T00:16:12;54.77;;;43.77;;
9888;SDS011;4983;42.112;24.738;2022-11-15T00:18:39;43.00;;;36.43;;
9888;SDS011;4983;42.112;24.738;2022-11-15T00:21:07;42.33;;;34.70;;
9888;SDS011;4983;42.112;24.738;2022-11-15T00:23:34;39.13;;;32.63;;
9888;SDS011;4983;42.112;24.738;2022-11-15T00:26:01;44.63;;;35.07;;
9888;SDS011;4983;42.112;24.738;2022-11-15T00:28:29;70.65;;;55.95;;
9888;SDS011;4983;42.112;24.738;2022-11-15T00:30:59;55.57;;;43.60;;
9888;SDS011;4983;42.112;24.738;2022-11-15T00:33:26;51.40;;;37.27;;
9888;SDS011;4983;42.112;24.738;2022-11-15T00:35:52;42.67;;;33.73;;
9888;SDS011;4983;42.112;24.738;2022-11-15T00:38:19;40.40;;;31.63;;
9888;SDS011;4983;42.112;24.738;2022-11-15T00:40:46;40.70;;;31.93;;
9888;SDS011;4983;42.112;24.738;2022-11-15T00:43:13;36.80;;;30.90;;
9888;SDS011;4983;42.112;24.738;2022-11-15T00:45:42;37.70;;;30.50;;
9888;SDS011;4983;42.112;24.738;2022-11-15T00:48:09;37.77;;;31.27;;
9888;SDS011;4983;42.112;24.738;2022-11-15T00:50:36;41.37;;;32.03;;
9888;SDS011;4983;42.112;24.738;2022-11-15T00:53:02;40.17;;;30.83;;
9888;SDS011;4983;42.112;24.738;2022-11-15T00:55:29;39.27;;;30.13;;
9888;SDS011;4983;42.112;24.738;2022-11-15T00:57:56;40.73;;;31.07;;
9888;SDS011;4983;42.112;24.738;2022-11-15T01:00:23;38.00;;;30.43;;
9888;SDS011;4983;42.112;24.738;2022-11-15T01:02:51;38.33;;;32.73;;
9888;SDS011;4983;42.112;24.738;2022-11-15T01:05:17;38.40;;;31.07;;
9888;SDS011;4983;42.112;24.738;2022-11-15T01:07:44;40.97;;;31.13;;
9888;SDS011;4983;42.112;24.738;2022-11-15T01:10:11;40.80;;;30.53;;
9888;SDS011;4983;42.112;24.738;2022-11-15T01:12:38;40.87;;;31.40;;
9888;SDS011;4983;42.112;24.738;2022-11-15T01:15:05;39.47;;;29.33;;
9888;SDS011;4983;42.112;24.738;2022-11-15T01:17:32;35.67;;;28.43;;
9888;SDS011;4983;42.112;24.738;2022-11-15T01:20:01;36.67;;;30.07;;
9888;SDS011;4983;42.112;24.738;2022-11-15T01:22:27;39.87;;;29.93;;
9888;SDS011;4983;42.112;24.738;2022-11-15T01:24:54;37.43;;;30.93;;
9888;SDS011;4983;42.112;24.738;2022-11-15T01:27:21;38.00;;;28.47;;
9888;SDS011;4983;42.112;24.738;2022-11-15T01:29:49;35.87;;;29.13;;
9888;SDS011;4983;42.112;24.738;2022-11-15T01:32:15;32.43;;;27.13;;
9888;SDS011;4983;42.112;24.738;2022-11-15T01:34:43;33.47;;;26.07;;
9888;SDS011;4983;42.112;24.738;2022-11-15T01:37:11;32.87;;;27.27;;
9888;SDS011;4983;42.112;24.738;2022-11-15T01:39:38;32.77;;;25.37;;
9888;SDS011;4983;42.112;24.738;2022-11-15T01:42:05;34.23;;;25.40;;
9888;SDS011;4983;42.112;24.738;2022-11-15T01:44:39;33.83;;;25.50;;
9888;SDS011;4983;42.112;24.738;2022-11-15T01:47:07;29.33;;;25.30;;
9888;SDS011;4983;42.112;24.738;2022-11-15T01:49:35;31.93;;;26.27;;
9888;SDS011;4983;42.112;24.738;2022-11-15T01:52:06;32.47;;;27.87;;
9888;SDS011;4983;42.112;24.738;2022-11-15T01:54:35;32.10;;;26.23;;
9888;SDS011;4983;42.112;24.738;2022-11-15T01:57:03;33.93;;;26.33;;
9888;SDS011;4983;42.112;24.738;2022-11-15T01:59:30;32.87;;;28.13;;
9888;SDS011;4983;42.112;24.738;2022-11-15T02:01:57;32.57;;;28.37;;
9888;SDS011;4983;42.112;24.738;2022-11-15T02:04:25;55.60;;;49.90;;
9888;SDS011;4983;42.112;24.738;2022-11-15T02:06:52;40.37;;;36.17;;
9888;SDS011;4983;42.112;24.738;2022-11-15T02:09:19;30.63;;;26.60;;
9888;SDS011;4983;42.112;24.738;2022-11-15T02:11:48;30.00;;;25.80;;
9888;SDS011;4983;42.112;24.738;2022-11-15T02:14:16;33.60;;;27.43;;
9888;SDS011;4983;42.112;24.738;2022-11-15T02:16:48;29.60;;;25.33;;
9888;SDS011;4983;42.112;24.738;2022-11-15T02:19:21;32.57;;;26.00;;
9888;SDS011;4983;42.112;24.738;2022-11-15T02:21:56;33.03;;;27.50;;
9888;SDS011;4983;42.112;24.738;2022-11-15T02:24:37;33.23;;;27.60;;
9888;SDS011;4983;42.112;24.738;2022-11-15T02:30:04;34.70;;;27.27;;
9888;SDS011;4983;42.112;24.738;2022-11-15T02:32:35;36.57;;;27.90;;
9888;SDS011;4983;42.112;24.738;2022-11-15T02:35:06;32.30;;;27.73;;
9888;SDS011;4983;42.112;24.738;2022-11-15T02:37:39;36.33;;;27.83;;
9888;SDS011;4983;42.112;24.738;2022-11-15T02:40:11;32.70;;;28.00;;
9888;SDS011;4983;42.112;24.738;2022-11-15T02:42:40;34.83;;;28.20;;
9888;SDS011;4983;42.112;24.738;2022-11-15T02:45:28;36.97;;;28.77;;
9888;SDS011;4983;42.112;24.738;2022-11-15T02:47:57;38.33;;;29.67;;
9888;SDS011;4983;42.112;24.738;2022-11-15T02:50:25;37.27;;;30.37;;
9888;SDS011;4983;42.112;24.738;2022-11-15T02:52:55;41.40;;;33.30;;
9888;SDS011;4983;42.112;24.738;2022-11-15T02:55:26;37.87;;;29.13;;
9888;SDS011;4983;42.112;24.738;2022-11-15T02:57:55;35.00;;;29.93;;
9888;SDS011;4983;42.112;24.738;2022-11-15T03:00:24;36.57;;;28.37;;
9888;SDS011;4983;42.112;24.738;2022-11-15T03:02:58;37.63;;;30.43;;
9888;SDS011;4983;42.112;24.738;2022-11-15T03:05:34;38.57;;;30.07;;
9888;SDS011;4983;42.112;24.738;2022-11-15T03:08:03;38.10;;;28.00;;
9888;SDS011;4983;42.112;24.738;2022-11-15T03:10:36;34.77;;;28.37;;
9888;SDS011;4983;42.112;24.738;2022-11-15T03:13:08;34.27;;;27.70;;
9888;SDS011;4983;42.112;24.738;2022-11-15T03:15:37;31.10;;;26.97;;
9888;SDS011;4983;42.112;24.738;2022-11-15T03:18:09;36.40;;;26.27;;
9888;SDS011;4983;42.112;24.738;2022-11-15T03:20:36;31.97;;;26.57;;
9888;SDS011;4983;42.112;24.738;2022-11-15T03:23:04;32.50;;;26.10;;
9888;SDS011;4983;42.112;24.738;2022-11-15T03:25:32;34.23;;;26.07;;
9888;SDS011;4983;42.112;24.738;2022-11-15T03:28:01;31.43;;;24.80;;
9888;SDS011;4983;42.112;24.738;2022-11-15T03:30:30;33.57;;;26.10;;
9888;SDS011;4983;42.112;24.738;2022-11-15T03:32:58;33.77;;;26.50;;
9888;SDS011;4983;42.112;24.738;2022-11-15T03:35:29;30.33;;;25.80;;
9888;SDS011;4983;42.112;24.738;2022-11-15T03:37:57;32.83;;;26.40;;
9888;SDS011;4983;42.112;24.738;2022-11-15T03:40:27;32.97;;;26.63;;
9888;SDS011;4983;42.112;24.738;2022-11-15T03:42:58;29.93;;;25.20;;
9888;SDS011;4983;42.112;24.738;2022-11-15T03:45:27;30.87;;;24.30;;
9888;SDS011;4983;42.112;24.738;2022-11-15T03:47:57;28.33;;;24.57;;
9888;SDS011;4983;42.112;24.738;2022-11-15T03:50:25;30.17;;;23.63;;
9888;SDS011;4983;42.112;24.738;2022-11-15T03:52:54;31.47;;;24.87;;
9888;SDS011;4983;42.112;24.738;2022-11-15T03:55:21;31.37;;;25.23;;
9888;SDS011;4983;42.112;24.738;2022-11-15T03:57:50;31.20;;;26.07;;
9888;SDS011;4983;42.112;24.738;2022-11-15T04:00:17;29.37;;;24.27;;
9888;SDS011;4983;42.112;24.738;2022-11-15T04:02:45;29.67;;;24.57;;
9888;SDS011;4983;42.112;24.738;2022-11-15T04:05:11;29.97;;;25.10;;
9888;SDS011;4983;42.112;24.738;2022-11-15T04:07:38;30.47;;;24.13;;
9888;SDS011;4983;42.112;24.738;2022-11-15T04:10:07;28.53;;;23.97;;
9888;SDS011;4983;42.112;24.738;2022-11-15T04:12:36;29.97;;;24.20;;
9888;SDS011;4983;42.112;24.738;2022-11-15T04:15:03;28.73;;;23.57;;
9888;SDS011;4983;42.112;24.738;2022-11-15T04:17:34;28.63;;;24.63;;
9888;SDS011;4983;42.112;24.738;2022-11-15T04:20:02;27.33;;;23.30;;
9888;SDS011;4983;42.112;24.738;2022-11-15T04:22:46;32.17;;;23.53;;
9888;SDS011;4983;42.112;24.738;2022-11-15T04:25:31;28.97;;;23.80;;
9888;SDS011;4983;42.112;24.738;2022-11-15T04:27:58;30.83;;;24.83;;
9888;SDS011;4983;42.112;24.738;2022-11-15T04:30:25;29.17;;;24.60;;
9888;SDS011;4983;42.112;24.738;2022-11-15T04:32:52;30.33;;;24.03;;
9888;SDS011;4983;42.112;24.738;2022-11-15T04:35:18;29.37;;;23.43;;
9888;SDS011;4983;42.112;24.738;2022-11-15T04:37:45;29.87;;;23.27;;
9888;SDS011;4983;42.112;24.738;2022-11-15T04:40:12;27.47;;;23.57;;
9888;SDS011;4983;42.112;24.738;2022-11-15T04:42:41;29.60;;;23.67;;
9888;SDS011;4983;42.112;24.738;2022-11-15T04:45:08;28.17;;;22.27;;
9888;SDS011;4983;42.112;24.738;2022-11-15T04:47:35;27.77;;;23.77;;
9888;SDS011;4983;42.112;24.738;2022-11-15T04:50:02;29.50;;;22.60;;
9888;SDS011;4983;42.112;24.738;2022-11-15T04:52:29;29.20;;;22.03;;
9888;SDS011;4983;42.112;24.738;2022-11-15T04:54:56;28.17;;;24.57;;
9888;SDS011;4983;42.112;24.738;2022-11-15T04:57:23;30.67;;;23.23;;
9888;SDS011;4983;42.112;24.738;2022-11-15T04:59:51;29.70;;;25.63;;
9888;SDS011;4983;42.112;24.738;2022-11-15T05:02:18;32.53;;;23.77;;
9888;SDS011;4983;42.112;24.738;2022-11-15T05:04:44;28.57;;;23.23;;
9888;SDS011;4983;42.112;24.738;2022-11-15T05:07:10;30.10;;;24.47;;
9888;SDS011;4983;42.112;24.738;2022-11-15T05:09:37;30.70;;;25.87;;
9888;SDS011;4983;42.112;24.738;2022-11-15T05:12:04;37.07;;;29.73;;
9888;SDS011;4983;42.112;24.738;2022-11-15T05:14:30;41.90;;;32.20;;
9888;SDS011;4983;42.112;24.738;2022-11-15T05:16:58;32.33;;;25.43;;
9888;SDS011;4983;42.112;24.738;2022-11-15T05:19:25;31.47;;;26.30;;
9888;SDS011;4983;42.112;24.738;2022-11-15T05:21:52;28.60;;;22.13;;
9888;SDS011;4983;42.112;24.738;2022-11-15T05:24:19;28.57;;;23.13;;
9888;SDS011;4983;42.112;24.738;2022-11-15T05:26:45;29.03;;;23.57;;
9888;SDS011;4983;42.112;24.738;2022-11-15T05:29:12;32.40;;;24.20;;
9888;SDS011;4983;42.112;24.738;2022-11-15T05:31:39;40.83;;;31.50;;
9888;SDS011;4983;42.112;24.738;2022-11-15T05:34:09;33.00;;;24.90;;
9888;SDS011;4983;42.112;24.738;2022-11-15T05:36:36;33.43;;;25.37;;
9888;SDS011;4983;42.112;24.738;2022-11-15T05:39:05;35.70;;;26.37;;
9888;SDS011;4983;42.112;24.738;2022-11-15T05:41:32;31.47;;;23.73;;
9888;SDS011;4983;42.112;24.738;2022-11-15T05:44:01;31.87;;;24.60;;
9888;SDS011;4983;42.112;24.738;2022-11-15T05:46:29;32.80;;;24.10;;
9888;SDS011;4983;42.112;24.738;2022-11-15T05:48:56;36.30;;;26.20;;
9888;SDS011;4983;42.112;24.738;2022-11-15T05:51:25;44.07;;;25.53;;
9888;SDS011;4983;42.112;24.738;2022-11-15T05:53:53;36.67;;;25.40;;
9888;SDS011;4983;42.112;24.738;2022-11-15T05:56:22;37.73;;;26.67;;
9888;SDS011;4983;42.112;24.738;2022-11-15T05:58:51;34.73;;;26.00;;
9888;SDS011;4983;42.112;24.738;2022-11-15T06:01:18;38.43;;;26.77;;
9888;SDS011;4983;42.112;24.738;2022-11-15T06:03:45;33.27;;;27.20;;
9888;SDS011;4983;42.112;24.738;2022-11-15T06:06:12;34.63;;;26.67;;
9888;SDS011;4983;42.112;24.738;2022-11-15T06:08:40;37.40;;;25.33;;
9888;SDS011;4983;42.112;24.738;2022-11-15T06:11:07;39.80;;;28.37;;
9888;SDS011;4983;42.112;24.738;2022-11-15T06:13:34;38.03;;;27.80;;
9888;SDS011;4983;42.112;24.738;2022-11-15T06:16:01;35.30;;;27.53;;
9888;SDS011;4983;42.112;24.738;2022-11-15T06:18:31;44.27;;;33.43;;
9888;SDS011;4983;42.112;24.738;2022-11-15T06:20:58;68.73;;;47.13;;
9888;SDS011;4983;42.112;24.738;2022-11-15T06:23:25;72.80;;;53.20;;
9888;SDS011;4983;42.112;24.738;2022-11-15T06:25:53;66.07;;;48.27;;
9888;SDS011;4983;42.112;24.738;2022-11-15T06:28:20;71.57;;;60.13;;
9888;SDS011;4983;42.112;24.738;2022-11-15T06:30:47;57.43;;;41.17;;
9888;SDS011;4983;42.112;24.738;2022-11-15T06:33:14;55.43;;;38.10;;
9888;SDS011;4983;42.112;24.738;2022-11-15T06:35:40;50.70;;;34.73;;
9888;SDS011;4983;42.112;24.738;2022-11-15T06:38:08;52.37;;;39.37;;
9888;SDS011;4983;42.112;24.738;2022-11-15T06:40:35;47.57;;;37.43;;
9888;SDS011;4983;42.112;24.738;2022-11-15T06:43:04;51.87;;;35.63;;
9888;SDS011;4983;42.112;24.738;2022-11-15T06:45:31;46.40;;;35.37;;
9888;SDS011;4983;42.112;24.738;2022-11-15T06:47:58;41.33;;;30.13;;
9888;SDS011;4983;42.112;24.738;2022-11-15T06:50:25;42.60;;;27.87;;
9888;SDS011;4983;42.112;24.738;2022-11-15T06:52:53;35.33;;;25.93;;
9888;SDS011;4983;42.112;24.738;2022-11-15T06:55:21;39.17;;;26.47;;
9888;SDS011;4983;42.112;24.738;2022-11-15T06:57:48;34.43;;;25.87;;
9888;SDS011;4983;42.112;24.738;2022-11-15T07:00:18;34.30;;;24.37;;
9888;SDS011;4983;42.112;24.738;2022-11-15T07:02:45;30.50;;;23.13;;
9888;SDS011;4983;42.112;24.738;2022-11-15T07:05:12;32.80;;;25.13;;
9888;SDS011;4983;42.112;24.738;2022-11-15T07:07:40;30.80;;;23.37;;
9888;SDS011;4983;42.112;24.738;2022-11-15T07:10:07;38.10;;;24.27;;
9888;SDS011;4983;42.112;24.738;2022-11-15T07:12:35;31.63;;;23.80;;
9888;SDS011;4983;42.112;24.738;2022-11-15T07:15:01;31.10;;;24.50;;
9888;SDS011;4983;42.112;24.738;2022-11-15T07:17:30;33.27;;;23.10;;
9888;SDS011;4983;42.112;24.738;2022-11-15T07:19:56;30.37;;;24.63;;
9888;SDS011;4983;42.112;24.738;2022-11-15T07:22:23;36.10;;;25.30;;
9888;SDS011;4983;42.112;24.738;2022-11-15T07:24:50;35.67;;;25.13;;
9888;SDS011;4983;42.112;24.738;2022-11-15T07:27:17;42.43;;;30.97;;
9888;SDS011;4983;42.112;24.738;2022-11-15T07:29:44;43.07;;;29.77;;
9888;SDS011;4983;42.112;24.738;2022-11-15T07:32:10;39.87;;;30.17;;
9888;SDS011;4983;42.112;24.738;2022-11-15T07:34:38;41.27;;;28.70;;
9888;SDS011;4983;42.112;24.738;2022-11-15T07:37:05;37.50;;;27.67;;
9888;SDS011;4983;42.112;24.738;2022-11-15T07:39:32;32.87;;;26.63;;
9888;SDS011;4983;42.112;24.738;2022-11-15T07:41:59;38.13;;;25.50;;
9888;SDS011;4983;42.112;24.738;2022-11-15T07:44:43;32.23;;;24.77;;
9888;SDS011;4983;42.112;24.738;2022-11-15T07:47:10;37.13;;;24.53;;
9888;SDS011;4983;42.112;24.738;2022-11-15T07:49:38;38.13;;;24.80;;
9888;SDS011;4983;42.112;24.738;2022-11-15T07:52:05;32.23;;;24.67;;
9888;SDS011;4983;42.112;24.738;2022-11-15T07:54:32;30.33;;;25.60;;
9888;SDS011;4983;42.112;24.738;2022-11-15T07:56:59;36.93;;;24.80;;
9888;SDS011;4983;42.112;24.738;2022-11-15T07:59:26;37.23;;;24.23;;
9888;SDS011;4983;42.112;24.738;2022-11-15T08:01:52;34.70;;;23.67;;
9888;SDS011;4983;42.112;24.738;2022-11-15T08:04:19;30.83;;;23.77;;
9888;SDS011;4983;42.112;24.738;2022-11-15T08:06:47;34.07;;;23.63;;
9888;SDS011;4983;42.112;24.738;2022-11-15T08:09:14;29.00;;;23.67;;
9888;SDS011;4983;42.112;24.738;2022-11-15T08:11:41;31.03;;;23.03;;
9888;SDS011;4983;42.112;24.738;2022-11-15T08:14:08;36.70;;;24.73;;
9888;SDS011;4983;42.112;24.738;2022-11-15T08:16:35;32.77;;;23.83;;
9888;SDS011;4983;42.112;24.738;2022-11-15T08:19:02;31.03;;;25.17;;
9888;SDS011;4983;42.112;24.738;2022-11-15T08:21:30;31.77;;;24.87;;
9888;SDS011;4983;42.112;24.738;2022-11-15T08:23:58;31.80;;;23.63;;
9888;SDS011;4983;42.112;24.738;2022-11-15T08:26:25;35.60;;;23.90;;
9888;SDS011;4983;42.112;24.738;2022-11-15T08:28:54;33.40;;;25.53;;
9888;SDS011;4983;42.112;24.738;2022-11-15T08:31:21;36.50;;;25.57;;
9888;SDS011;4983;42.112;24.738;2022-11-15T08:33:48;35.90;;;24.07;;
9888;SDS011;4983;42.112;24.738;2022-11-15T08:36:15;32.90;;;22.53;;
9888;SDS011;4983;42.112;24.738;2022-11-15T08:38:42;28.40;;;22.47;;
9888;SDS011;4983;42.112;24.738;2022-11-15T08:41:12;32.40;;;22.63;;
9888;SDS011;4983;42.112;24.738;2022-11-15T08:43:40;34.80;;;23.33;;
9888;SDS011;4983;42.112;24.738;2022-11-15T08:46:07;35.00;;;23.70;;
9888;SDS011;4983;42.112;24.738;2022-11-15T08:48:34;36.67;;;24.63;;
9888;SDS011;4983;42.112;24.738;2022-11-15T08:51:01;37.50;;;24.50;;
9888;SDS011;4983;42.112;24.738;2022-11-15T08:53:28;31.23;;;23.20;;
9888;SDS011;4983;42.112;24.738;2022-11-15T08:55:55;26.00;;;21.60;;
9888;SDS011;4983;42.112;24.738;2022-11-15T08:58:23;29.23;;;22.40;;
9888;SDS011;4983;42.112;24.738;2022-11-15T09:00:49;28.53;;;21.90;;
9888;SDS011;4983;42.112;24.738;2022-11-15T09:03:16;85.00;;;27.53;;
9888;SDS011;4983;42.112;24.738;2022-11-15T09:05:43;27.60;;;22.63;;
9888;SDS011;4983;42.112;24.738;2022-11-15T09:08:10;30.27;;;23.70;;
9888;SDS011;4983;42.112;24.738;2022-11-15T09:10:38;28.47;;;22.17;;
9888;SDS011;4983;42.112;24.738;2022-11-15T09:13:05;26.73;;;22.60;;
9888;SDS011;4983;42.112;24.738;2022-11-15T09:15:33;25.83;;;22.70;;
9888;SDS011;4983;42.112;24.738;2022-11-15T09:18:00;28.10;;;23.03;;
9888;SDS011;4983;42.112;24.738;2022-11-15T09:20:27;31.17;;;25.27;;
9888;SDS011;4983;42.112;24.738;2022-11-15T09:22:54;34.60;;;23.43;;
9888;SDS011;4983;42.112;24.738;2022-11-15T09:25:21;34.77;;;24.40;;
9888;SDS011;4983;42.112;24.738;2022-11-15T09:27:48;30.33;;;24.13;;
9888;SDS011;4983;42.112;24.738;2022-11-15T09:30:15;27.03;;;23.60;;
9888;SDS011;4983;42.112;24.738;2022-11-15T09:32:43;25.53;;;22.73;;
9888;SDS011;4983;42.112;24.738;2022-11-15T09:35:10;28.23;;;22.87;;
9888;SDS011;4983;42.112;24.738;2022-11-15T09:37:37;25.40;;;22.70;;
9888;SDS011;4983;42.112;24.738;2022-11-15T09:40:06;58.83;;;25.63;;
9888;SDS011;4983;42.112;24.738;2022-11-15T09:42:39;29.17;;;22.97;;
9888;SDS011;4983;42.112;24.738;2022-11-15T09:45:14;26.47;;;22.23;;
9888;SDS011;4983;42.112;24.738;2022-11-15T09:47:56;27.77;;;21.77;;
9888;SDS011;4983;42.112;24.738;2022-11-15T09:50:30;27.90;;;22.00;;
9888;SDS011;4983;42.112;24.738;2022-11-15T09:52:58;26.47;;;21.07;;
9888;SDS011;4983;42.112;24.738;2022-11-15T09:55:31;82.87;;;25.20;;
9888;SDS011;4983;42.112;24.738;2022-11-15T09:58:01;50.73;;;23.97;;
9888;SDS011;4983;42.112;24.738;2022-11-15T10:00:31;26.20;;;22.50;;
9888;SDS011;4983;42.112;24.738;2022-11-15T10:03:12;34.23;;;23.30;;
9888;SDS011;4983;42.112;24.738;2022-11-15T10:05:40;34.93;;;22.87;;
9888;SDS011;4983;42.112;24.738;2022-11-15T10:08:23;26.40;;;23.23;;
9888;SDS011;4983;42.112;24.738;2022-11-15T10:10:59;25.20;;;21.40;;
9888;SDS011;4983;42.112;24.738;2022-11-15T10:13:28;34.30;;;23.13;;
9888;SDS011;4983;42.112;24.738;2022-11-15T10:15:57;23.33;;;20.83;;
9888;SDS011;4983;42.112;24.738;2022-11-15T10:18:29;88.70;;;27.17;;
9888;SDS011;4983;42.112;24.738;2022-11-15T10:21:02;28.93;;;22.27;;
9888;SDS011;4983;42.112;24.738;2022-11-15T10:23:33;25.13;;;20.37;;
9888;SDS011;4983;42.112;24.738;2022-11-15T10:26:00;32.13;;;23.40;;
9888;SDS011;4983;42.112;24.738;2022-11-15T10:28:28;77.83;;;26.17;;
9888;SDS011;4983;42.112;24.738;2022-11-15T10:30:56;25.60;;;22.70;;
9888;SDS011;4983;42.112;24.738;2022-11-15T10:33:27;54.67;;;24.73;;
9888;SDS011;4983;42.112;24.738;2022-11-15T10:41:34;24.87;;;21.97;;
9888;SDS011;4983;42.112;24.738;2022-11-15T10:44:12;23.87;;;20.27;;
9888;SDS011;4983;42.112;24.738;2022-11-15T10:46:44;36.97;;;23.30;;
9888;SDS011;4983;42.112;24.738;2022-11-15T10:49:12;27.70;;;22.80;;
9888;SDS011;4983;42.112;24.738;2022-11-15T10:51:41;25.37;;;22.63;;
9888;SDS011;4983;42.112;24.738;2022-11-15T10:54:10;28.13;;;24.47;;
9888;SDS011;4983;42.112;24.738;2022-11-15T10:56:40;29.03;;;23.43;;
9888;SDS011;4983;42.112;24.738;2022-11-15T10:59:13;73.83;;;26.13;;
9888;SDS011;4983;42.112;24.738;2022-11-15T11:01:45;31.33;;;22.67;;
9888;SDS011;4983;42.112;24.738;2022-11-15T11:04:12;29.00;;;22.77;;
9888;SDS011;4983;42.112;24.738;2022-11-15T11:06:46;36.97;;;22.30;;
9888;SDS011;4983;42.112;24.738;2022-11-15T11:09:19;44.93;;;24.67;;
9888;SDS011;4983;42.112;24.738;2022-11-15T11:11:49;35.13;;;29.23;;
9888;SDS011;4983;42.112;24.738;2022-11-15T11:14:21;33.53;;;22.50;;
9888;SDS011;4983;42.112;24.738;2022-11-15T11:16:50;26.37;;;22.97;;
9888;SDS011;4983;42.112;24.738;2022-11-15T11:19:32;27.13;;;22.57;;
9888;SDS011;4983;42.112;24.738;2022-11-15T11:22:01;29.73;;;23.07;;
9888;SDS011;4983;42.112;24.738;2022-11-15T11:24:32;28.77;;;23.20;;
9888;SDS011;4983;42.112;24.738;2022-11-15T11:27:12;26.40;;;23.57;;
9888;SDS011;4983;42.112;24.738;2022-11-15T11:29:44;48.17;;;24.00;;
9888;SDS011;4983;42.112;24.738;2022-11-15T11:32:17;62.77;;;26.63;;
9888;SDS011;4983;42.112;24.738;2022-11-15T11:34:49;44.27;;;23.70;;
9888;SDS011;4983;42.112;24.738;2022-11-15T11:37:20;28.87;;;25.40;;
9888;SDS011;4983;42.112;24.738;2022-11-15T11:39:53;74.17;;;28.27;;
9888;SDS011;4983;42.112;24.738;2022-11-15T11:42:26;36.30;;;25.40;;
9888;SDS011;4983;42.112;24.738;2022-11-15T11:44:58;32.47;;;26.10;;
9888;SDS011;4983;42.112;24.738;2022-11-15T11:47:30;35.23;;;25.70;;
9888;SDS011;4983;42.112;24.738;2022-11-15T11:49:59;46.80;;;27.07;;
9888;SDS011;4983;42.112;24.738;2022-11-15T11:52:28;40.17;;;27.50;;
9888;SDS011;4983;42.112;24.738;2022-11-15T11:54:59;55.67;;;26.43;;
9888;SDS011;4983;42.112;24.738;2022-11-15T11:57:31;29.77;;;25.73;;
9888;SDS011;4983;42.112;24.738;2022-11-15T12:00:00;62.53;;;28.37;;
9888;SDS011;4983;42.112;24.738;2022-11-15T12:02:29;28.10;;;25.10;;
9888;SDS011;4983;42.112;24.738;2022-11-15T12:04:59;70.30;;;27.27;;
9888;SDS011;4983;42.112;24.738;2022-11-15T12:07:29;43.07;;;26.27;;
9888;SDS011;4983;42.112;24.738;2022-11-15T12:09:58;30.50;;;24.77;;
9888;SDS011;4983;42.112;24.738;2022-11-15T12:12:27;52.30;;;26.03;;
9888;SDS011;4983;42.112;24.738;2022-11-15T12:14:59;30.23;;;24.63;;
9888;SDS011;4983;42.112;24.738;2022-11-15T12:17:28;31.77;;;26.07;;
9888;SDS011;4983;42.112;24.738;2022-11-15T12:19:57;40.83;;;26.43;;
9888;SDS011;4983;42.112;24.738;2022-11-15T12:22:27;87.47;;;29.43;;
9888;SDS011;4983;42.112;24.738;2022-11-15T12:24:56;33.80;;;25.40;;
9888;SDS011;4983;42.112;24.738;2022-11-15T12:27:26;28.93;;;25.17;;
9888;SDS011;4983;42.112;24.738;2022-11-15T12:29:56;60.83;;;29.40;;
9888;SDS011;4983;42.112;24.738;2022-11-15T12:32:27;98.10;;;30.33;;
9888;SDS011;4983;42.112;24.738;2022-11-15T12:34:55;50.33;;;26.47;;
9888;SDS011;4983;42.112;24.738;2022-11-15T12:43:04;34.30;;;25.73;;
9888;SDS011;4983;42.112;24.738;2022-11-15T12:45:32;33.70;;;25.90;;
9888;SDS011;4983;42.112;24.738;2022-11-15T12:50:54;30.23;;;25.33;;
9888;SDS011;4983;42.112;24.738;2022-11-15T12:53:28;43.77;;;24.57;;
9888;SDS011;4983;42.112;24.738;2022-11-15T12:58:42;27.77;;;23.37;;
9888;SDS011;4983;42.112;24.738;2022-11-15T13:01:09;26.73;;;23.63;;
9888;SDS011;4983;42.112;24.738;2022-11-15T13:03:43;45.33;;;24.33;;
9888;SDS011;4983;42.112;24.738;2022-11-15T13:06:39;27.43;;;23.53;;
9888;SDS011;4983;42.112;24.738;2022-11-15T13:11:49;30.53;;;24.63;;
9888;SDS011;4983;42.112;24.738;2022-11-15T13:17:01;38.13;;;23.47;;
9888;SDS011;4983;42.112;24.738;2022-11-15T13:19:28;83.40;;;26.77;;
9888;SDS011;4983;42.112;24.738;2022-11-15T13:21:56;27.60;;;24.53;;
9888;SDS011;4983;42.112;24.738;2022-11-15T13:24:40;32.20;;;24.73;;
9888;SDS011;4983;42.112;24.738;2022-11-15T13:27:10;34.57;;;25.90;;
9888;SDS011;4983;42.112;24.738;2022-11-15T13:29:37;58.90;;;26.77;;
9888;SDS011;4983;42.112;24.738;2022-11-15T13:32:09;58.93;;;27.03;;
9888;SDS011;4983;42.112;24.738;2022-11-15T13:34:38;31.27;;;25.70;;
9888;SDS011;4983;42.112;24.738;2022-11-15T13:37:09;98.57;;;28.00;;
9888;SDS011;4983;42.112;24.738;2022-11-15T13:39:39;37.70;;;26.00;;
9888;SDS011;4983;42.112;24.738;2022-11-15T13:42:13;55.67;;;27.10;;
9888;SDS011;4983;42.112;24.738;2022-11-15T13:44:41;39.97;;;24.73;;
9888;SDS011;4983;42.112;24.738;2022-11-15T13:47:20;51.17;;;26.23;;
9888;SDS011;4983;42.112;24.738;2022-11-15T13:49:47;54.80;;;27.93;;
9888;SDS011;4983;42.112;24.738;2022-11-15T13:52:15;37.27;;;27.53;;
9888;SDS011;4983;42.112;24.738;2022-11-15T13:54:43;82.50;;;31.07;;
9888;SDS011;4983;42.112;24.738;2022-11-15T13:57:11;152.93;;;35.77;;
9888;SDS011;4983;42.112;24.738;2022-11-15T13:59:43;270.50;;;42.80;;
9888;SDS011;4983;42.112;24.738;2022-11-15T14:02:12;62.77;;;28.10;;
9888;SDS011;4983;42.112;24.738;2022-11-15T14:04:45;330.97;;;46.90;;
9888;SDS011;4983;42.112;24.738;2022-11-15T14:07:17;59.70;;;30.43;;
9888;SDS011;4983;42.112;24.738;2022-11-15T14:09:44;83.03;;;30.60;;
9888;SDS011;4983;42.112;24.738;2022-11-15T14:12:28;68.07;;;29.67;;
9888;SDS011;4983;42.112;24.738;2022-11-15T14:14:56;287.33;;;41.83;;
9888;SDS011;4983;42.112;24.738;2022-11-15T14:17:32;64.73;;;30.03;;
9888;SDS011;4983;42.112;24.738;2022-11-15T14:19:59;125.67;;;34.83;;
9888;SDS011;4983;42.112;24.738;2022-11-15T14:22:28;53.00;;;30.73;;
9888;SDS011;4983;42.112;24.738;2022-11-15T14:25:07;72.23;;;30.90;;
9888;SDS011;4983;42.112;24.738;2022-11-15T14:27:34;106.70;;;31.60;;
9888;SDS011;4983;42.112;24.738;2022-11-15T14:30:00;48.13;;;28.20;;
9888;SDS011;4983;42.112;24.738;2022-11-15T14:32:28;37.07;;;27.97;;
9888;SDS011;4983;42.112;24.738;2022-11-15T14:34:55;54.57;;;30.60;;
9888;SDS011;4983;42.112;24.738;2022-11-15T14:37:23;177.03;;;38.20;;
9888;SDS011;4983;42.112;24.738;2022-11-15T14:39:52;78.47;;;31.50;;
9888;SDS011;4983;42.112;24.738;2022-11-15T14:42:19;73.77;;;31.00;;
9888;SDS011;4983;42.112;24.738;2022-11-15T14:44:46;105.70;;;33.80;;
9888;SDS011;4983;42.112;24.738;2022-11-15T14:47:13;74.23;;;32.50;;
9888;SDS011;4983;42.112;24.738;2022-11-15T14:49:39;71.87;;;32.07;;
9888;SDS011;4983;42.112;24.738;2022-11-15T14:52:19;56.40;;;31.30;;
9888;SDS011;4983;42.112;24.738;2022-11-15T14:54:49;52.87;;;30.20;;
9888;SDS011;4983;42.112;24.738;2022-11-15T14:57:17;42.57;;;30.40;;
9888;SDS011;4983;42.112;24.738;2022-11-15T14:59:44;67.83;;;32.00;;
9888;SDS011;4983;42.112;24.738;2022-11-15T15:02:13;81.33;;;33.30;;
9888;SDS011;4983;42.112;24.738;2022-11-15T15:04:41;53.60;;;32.27;;
9888;SDS011;4983;42.112;24.738;2022-11-15T15:07:07;64.23;;;33.13;;
9888;SDS011;4983;42.112;24.738;2022-11-15T15:09:34;84.27;;;35.87;;